Home > Products > Valid Products > TAF

000
FTUS43 KDMX 190345 AAA
TAFFOD
TAF AMD
KFOD 190345Z 1904/1924 16003KT P6SM OVC016
     FM191600 18004KT P6SM BKN025=



000
FTUS43 KDMX 190345 AAA
TAFFOD
TAF AMD
KFOD 190345Z 1904/1924 16003KT P6SM OVC016
     FM191600 18004KT P6SM BKN025=



000
FTUS43 KDMX 190345 AAA
TAFFOD
TAF AMD
KFOD 190345Z 1904/1924 16003KT P6SM OVC016
     FM191600 18004KT P6SM BKN025=



000
FTUS43 KDMX 190345 AAA
TAFFOD
TAF AMD
KFOD 190345Z 1904/1924 16003KT P6SM OVC016
     FM191600 18004KT P6SM BKN025=



000
FTUS43 KDMX 190344 AAA
TAFDSM
TAF AMD
KDSM 190344Z 1904/1924 VRB03KT P6SM BKN050
     FM190700 15004KT P6SM BKN013
     FM191700 17005KT P6SM BKN025=



000
FTUS43 KDMX 190344 AAA
TAFDSM
TAF AMD
KDSM 190344Z 1904/1924 VRB03KT P6SM BKN050
     FM190700 15004KT P6SM BKN013
     FM191700 17005KT P6SM BKN025=



000
FTUS43 KDMX 190344 AAA
TAFDSM
TAF AMD
KDSM 190344Z 1904/1924 VRB03KT P6SM BKN050
     FM190700 15004KT P6SM BKN013
     FM191700 17005KT P6SM BKN025=



000
FTUS43 KDMX 190344 AAA
TAFDSM
TAF AMD
KDSM 190344Z 1904/1924 VRB03KT P6SM BKN050
     FM190700 15004KT P6SM BKN013
     FM191700 17005KT P6SM BKN025=



000
FTUS43 KDMX 182325
TAFDSM
TAF
KDSM 182325Z 1900/1924 VRB03KT P6SM FEW010 OVC040
     FM190200 VRB03KT P6SM BKN010
     FM191700 17005KT P6SM BKN025=



000
FTUS43 KDMX 182325
TAFOTM
TAF
KOTM 182325Z 1900/1924 VRB02KT P6SM SCT010 BKN040
     FM190400 VRB03KT P6SM OVC010
     FM191600 15004KT P6SM BKN024=



000
FTUS43 KDMX 182325
TAFALO
TAF
KALO 182325Z 1900/1924 VRB03KT P6SM SCT018 OVC070
      TEMPO 1900/1902 BKN018
     FM191100 VRB02KT P6SM BKN010
     FM191700 17004KT P6SM BKN023=



000
FTUS43 KDMX 182325
TAFMCW
TAF
KMCW 182325Z 1900/1924 VRB02KT P6SM OVC070
     FM191200 VRB03KT P6SM BKN010
     FM191700 18005KT P6SM BKN022=



000
FTUS43 KDMX 182325
TAFFOD
TAF
KFOD 182325Z 1900/1924 13004KT P6SM BKN050
     FM190800 16003KT P6SM OVC010
     FM191600 18004KT P6SM BKN025=



000
FTUS43 KDMX 182325
TAFOTM
TAF
KOTM 182325Z 1900/1924 VRB02KT P6SM SCT010 BKN040
     FM190400 VRB03KT P6SM OVC010
     FM191600 15004KT P6SM BKN024=



000
FTUS43 KDMX 182325
TAFDSM
TAF
KDSM 182325Z 1900/1924 VRB03KT P6SM FEW010 OVC040
     FM190200 VRB03KT P6SM BKN010
     FM191700 17005KT P6SM BKN025=



000
FTUS43 KDMX 182325
TAFFOD
TAF
KFOD 182325Z 1900/1924 13004KT P6SM BKN050
     FM190800 16003KT P6SM OVC010
     FM191600 18004KT P6SM BKN025=



000
FTUS43 KDMX 182325
TAFMCW
TAF
KMCW 182325Z 1900/1924 VRB02KT P6SM OVC070
     FM191200 VRB03KT P6SM BKN010
     FM191700 18005KT P6SM BKN022=



000
FTUS43 KDMX 182325
TAFALO
TAF
KALO 182325Z 1900/1924 VRB03KT P6SM SCT018 OVC070
      TEMPO 1900/1902 BKN018
     FM191100 VRB02KT P6SM BKN010
     FM191700 17004KT P6SM BKN023=



000
FTUS43 KDMX 182302 AAC
TAFOTM
TAF AMD
KOTM 182302Z 1823/1918 VRB02KT P6SM OVC010
     FM191000 18003KT P6SM OVC015=



000
FTUS43 KDMX 182302 AAC
TAFOTM
TAF AMD
KOTM 182302Z 1823/1918 VRB02KT P6SM OVC010
     FM191000 18003KT P6SM OVC015=



000
FTUS43 KDMX 182149 AAB
TAFALO
TAF AMD
KALO 182149Z 1822/1918 VRB03KT P6SM OVC080
     FM190900 VRB03KT P6SM BKN015=



000
FTUS43 KDMX 182149 AAB
TAFALO
TAF AMD
KALO 182149Z 1822/1918 VRB03KT P6SM OVC080
     FM190900 VRB03KT P6SM BKN015=



000
FTUS43 KDMX 182149 AAB
TAFMCW
TAF AMD
KMCW 182149Z 1822/1918 VRB03KT P6SM OVC070
     FM190800 VRB03KT P6SM BKN015=



000
FTUS43 KDMX 182149 AAB
TAFMCW
TAF AMD
KMCW 182149Z 1822/1918 VRB03KT P6SM OVC070
     FM190800 VRB03KT P6SM BKN015=



000
FTUS43 KDMX 182146 AAA
TAFFOD
TAF AMD
KFOD 182146Z 1822/1918 14004KT P6SM OVC045
     FM182300 15004KT P6SM BKN025
     FM190400 18005KT P6SM OVC010=



000
FTUS43 KDMX 182146 AAA
TAFFOD
TAF AMD
KFOD 182146Z 1822/1918 14004KT P6SM OVC045
     FM182300 15004KT P6SM BKN025
     FM190400 18005KT P6SM OVC010=



000
FTUS43 KDMX 182050 AAA
TAFDSM
TAF AMD
KDSM 182050Z 1821/1918 VRB03KT P6SM OVC050
     FM182200 12003KT P6SM OVC025
     FM190000 15004KT P6SM OVC010=



000
FTUS43 KDMX 182050 AAA
TAFDSM
TAF AMD
KDSM 182050Z 1821/1918 VRB03KT P6SM OVC050
     FM182200 12003KT P6SM OVC025
     FM190000 15004KT P6SM OVC010=



000
FTUS43 KDMX 182049 AAA
TAFMCW
TAF AMD
KMCW 182049Z 1821/1918 VRB03KT P6SM OVC015=



000
FTUS43 KDMX 182049 AAA
TAFMCW
TAF AMD
KMCW 182049Z 1821/1918 VRB03KT P6SM OVC015=



000
FTUS43 KDMX 181958 AAB
TAFOTM
TAF AMD
KOTM 181958Z 1820/1918 VRB04KT P6SM OVC035
     FM191000 18003KT P6SM OVC015=



000
FTUS43 KDMX 181958 AAB
TAFOTM
TAF AMD
KOTM 181958Z 1820/1918 VRB04KT P6SM OVC035
     FM191000 18003KT P6SM OVC015=



000
FTUS43 KDMX 181934 AAA
TAFALO
TAF AMD
KALO 181934Z 1820/1918 VRB03KT P6SM BKN015=



000
FTUS43 KDMX 181934 AAA
TAFALO
TAF AMD
KALO 181934Z 1820/1918 VRB03KT P6SM BKN015=



000
FTUS43 KDMX 181802 AAA
TAFOTM
TAF AMD
KOTM 181802Z 1818/1918 VRB02KT 3SM -SN BKN015
     FM182000 VRB04KT P6SM OVC025
     FM191000 18003KT P6SM OVC015=



000
FTUS43 KDMX 181802 AAA
TAFOTM
TAF AMD
KOTM 181802Z 1818/1918 VRB02KT 3SM -SN BKN015
     FM182000 VRB04KT P6SM OVC025
     FM191000 18003KT P6SM OVC015=



000
FTUS43 KDMX 181723
TAFMCW
TAF
KMCW 181723Z 1818/1918 VRB03KT P6SM OVC015
     FM182000 VRB02KT P6SM SCT010 BKN080
     FM190200 19003KT P6SM BKN014=



000
FTUS43 KDMX 181723
TAFOTM
TAF
KOTM 181723Z 1818/1918 VRB02KT 2SM -SN BKN009
     FM182000 VRB04KT P6SM OVC025
     FM191000 18003KT P6SM OVC015=



000
FTUS43 KDMX 181723
TAFDSM
TAF
KDSM 181723Z 1818/1918 VRB03KT 6SM -SN OVC050
     FM182000 12003KT P6SM OVC025
     FM190000 15004KT P6SM OVC010=



000
FTUS43 KDMX 181723
TAFALO
TAF
KALO 181723Z 1818/1918 VRB03KT P6SM BKN100
     FM190900 VRB04KT P6SM BKN020 OVC050=



000
FTUS43 KDMX 181723
TAFFOD
TAF
KFOD 181723Z 1818/1918 14004KT P6SM OVC045
     FM182100 15004KT P6SM BKN025
     FM190000 18005KT P6SM OVC010=



000
FTUS43 KDMX 181723
TAFALO
TAF
KALO 181723Z 1818/1918 VRB03KT P6SM BKN100
     FM190900 VRB04KT P6SM BKN020 OVC050=



000
FTUS43 KDMX 181723
TAFDSM
TAF
KDSM 181723Z 1818/1918 VRB03KT 6SM -SN OVC050
     FM182000 12003KT P6SM OVC025
     FM190000 15004KT P6SM OVC010=



000
FTUS43 KDMX 181723
TAFOTM
TAF
KOTM 181723Z 1818/1918 VRB02KT 2SM -SN BKN009
     FM182000 VRB04KT P6SM OVC025
     FM191000 18003KT P6SM OVC015=



000
FTUS43 KDMX 181723
TAFFOD
TAF
KFOD 181723Z 1818/1918 14004KT P6SM OVC045
     FM182100 15004KT P6SM BKN025
     FM190000 18005KT P6SM OVC010=



000
FTUS43 KDMX 181723
TAFMCW
TAF
KMCW 181723Z 1818/1918 VRB03KT P6SM OVC015
     FM182000 VRB02KT P6SM SCT010 BKN080
     FM190200 19003KT P6SM BKN014=



000
FTUS43 KDMX 181609 AAB
TAFDSM
TAF AMD
KDSM 181609Z 1816/1912 10004KT P6SM OVC050
     FM181700 09005KT 5SM -SN SCT018 BKN028
     FM181800 10003KT P6SM BKN025=



000
FTUS43 KDMX 181609 AAB
TAFDSM
TAF AMD
KDSM 181609Z 1816/1912 10004KT P6SM OVC050
     FM181700 09005KT 5SM -SN SCT018 BKN028
     FM181800 10003KT P6SM BKN025=



000
FTUS43 KDMX 181608 AAA
TAFFOD
TAF AMD
KFOD 181608Z 1816/1912 VRB03KT P6SM BKN009
     FM181800 10005KT P6SM SCT015 BKN060
     FM182100 13004KT P6SM BKN024=



000
FTUS43 KDMX 181608 AAA
TAFFOD
TAF AMD
KFOD 181608Z 1816/1912 VRB03KT P6SM BKN009
     FM181800 10005KT P6SM SCT015 BKN060
     FM182100 13004KT P6SM BKN024=



000
FTUS43 KDMX 181606 AAB
TAFMCW
TAF AMD
KMCW 181606Z 1816/1912 VRB03KT P6SM OVC009
     FM182000 VRB02KT P6SM SCT010 BKN080
     FM190300 15003KT P6SM BKN014=



000
FTUS43 KDMX 181606 AAB
TAFMCW
TAF AMD
KMCW 181606Z 1816/1912 VRB03KT P6SM OVC009
     FM182000 VRB02KT P6SM SCT010 BKN080
     FM190300 15003KT P6SM BKN014=



000
FTUS43 KDMX 181438 AAA
TAFMCW
TAF AMD
KMCW 181438Z 1815/1912 VRB03KT P6SM OVC010
     FM181600 VRB02KT P6SM SCT015 BKN080
     FM190300 15003KT P6SM BKN014=



000
FTUS43 KDMX 181438 AAA
TAFMCW
TAF AMD
KMCW 181438Z 1815/1912 VRB03KT P6SM OVC010
     FM181600 VRB02KT P6SM SCT015 BKN080
     FM190300 15003KT P6SM BKN014=



000
FTUS43 KDMX 181436 AAA
TAFDSM
TAF AMD
KDSM 181436Z 1815/1912 10004KT P6SM OVC050
     FM181530 09005KT 5SM -SN SCT018 BKN028
     FM181800 10003KT P6SM BKN025=



000
FTUS43 KDMX 181436 AAA
TAFDSM
TAF AMD
KDSM 181436Z 1815/1912 10004KT P6SM OVC050
     FM181530 09005KT 5SM -SN SCT018 BKN028
     FM181800 10003KT P6SM BKN025=



000
FTUS43 KDMX 181434 AAA
TAFOTM
TAF AMD
KOTM 181434Z 1815/1912 08005KT 2SM -SN BR SCT018 BKN025
      TEMPO 1815/1816 1SM -SN
     FM181800 VRB04KT P6SM BKN028=



000
FTUS43 KDMX 181434 AAA
TAFOTM
TAF AMD
KOTM 181434Z 1815/1912 08005KT 2SM -SN BR SCT018 BKN025
      TEMPO 1815/1816 1SM -SN
     FM181800 VRB04KT P6SM BKN028=



000
FTUS43 KDMX 181138
TAFALO
TAF
KALO 181138Z 1812/1912 VRB03KT P6SM FEW015 BKN150
     FM190900 VRB04KT P6SM BKN028=



000
FTUS43 KDMX 181138
TAFDSM
TAF
KDSM 181138Z 1812/1912 07004KT P6SM BKN060
     FM181330 08004KT 5SM -SN SCT022 BKN035
     FM181500 09005KT 3SM -SN SCT018 BKN028
     FM181900 10003KT P6SM BKN025=



000
FTUS43 KDMX 181138
TAFMCW
TAF
KMCW 181138Z 1812/1912 VRB03KT P6SM BKN012
     FM181430 VRB02KT P6SM SCT015 BKN080
     FM190300 15003KT P6SM BKN014=



000
FTUS43 KDMX 181138
TAFFOD
TAF
KFOD 181138Z 1812/1912 10005KT P6SM SCT040 BKN060
     FM182100 13004KT P6SM BKN024=



000
FTUS43 KDMX 181138
TAFOTM
TAF
KOTM 181138Z 1812/1912 07005KT P6SM -SN BKN080
     FM181300 08005KT 4SM -SN BR SCT020 BKN035
     FM181400 08005KT 3SM -SN BR SCT018 BKN025
     FM181800 VRB04KT P6SM BKN028=



000
FTUS43 KDMX 181138
TAFALO
TAF
KALO 181138Z 1812/1912 VRB03KT P6SM FEW015 BKN150
     FM190900 VRB04KT P6SM BKN028=



000
FTUS43 KDMX 181138
TAFDSM
TAF
KDSM 181138Z 1812/1912 07004KT P6SM BKN060
     FM181330 08004KT 5SM -SN SCT022 BKN035
     FM181500 09005KT 3SM -SN SCT018 BKN028
     FM181900 10003KT P6SM BKN025=



000
FTUS43 KDMX 181138
TAFFOD
TAF
KFOD 181138Z 1812/1912 10005KT P6SM SCT040 BKN060
     FM182100 13004KT P6SM BKN024=



000
FTUS43 KDMX 181138
TAFMCW
TAF
KMCW 181138Z 1812/1912 VRB03KT P6SM BKN012
     FM181430 VRB02KT P6SM SCT015 BKN080
     FM190300 15003KT P6SM BKN014=



000
FTUS43 KDMX 181138
TAFOTM
TAF
KOTM 181138Z 1812/1912 07005KT P6SM -SN BKN080
     FM181300 08005KT 4SM -SN BR SCT020 BKN035
     FM181400 08005KT 3SM -SN BR SCT018 BKN025
     FM181800 VRB04KT P6SM BKN028=



000
FTUS43 KDMX 180533
TAFALO
TAF
KALO 180533Z 1806/1906 VRB03KT P6SM FEW020 BKN250
     FM181500 VRB02KT P6SM BKN100=



000
FTUS43 KDMX 180533
TAFOTM
TAF
KOTM 180533Z 1806/1906 VRB03KT P6SM BKN080
     FM181300 08004KT 4SM -SN BR SCT020 BKN035
     FM181800 VRB04KT P6SM BKN040=



000
FTUS43 KDMX 180533
TAFALO
TAF
KALO 180533Z 1806/1906 VRB03KT P6SM FEW020 BKN250
     FM181500 VRB02KT P6SM BKN100=



000
FTUS43 KDMX 180533
TAFMCW
TAF
KMCW 180533Z 1806/1906 VRB03KT P6SM BKN015
     FM181500 VRB02KT P6SM SCT015 BKN100=



000
FTUS43 KDMX 180533
TAFFOD
TAF
KFOD 180533Z 1806/1906 VRB02KT P6SM BKN080
     FM181300 12004KT P6SM SCT030 BKN060=



000
FTUS43 KDMX 180533
TAFDSM
TAF
KDSM 180533Z 1806/1906 VRB03KT P6SM BKN080
     FM181300 09004KT P6SM -SN SCT030 BKN060
     FM181800 13003KT P6SM BKN100=



000
FTUS43 KDMX 180533
TAFMCW
TAF
KMCW 180533Z 1806/1906 VRB03KT P6SM BKN015
     FM181500 VRB02KT P6SM SCT015 BKN100=



000
FTUS43 KDMX 180533
TAFFOD
TAF
KFOD 180533Z 1806/1906 VRB02KT P6SM BKN080
     FM181300 12004KT P6SM SCT030 BKN060=



000
FTUS43 KDMX 180533
TAFOTM
TAF
KOTM 180533Z 1806/1906 VRB03KT P6SM BKN080
     FM181300 08004KT 4SM -SN BR SCT020 BKN035
     FM181800 VRB04KT P6SM BKN040=



000
FTUS43 KDMX 180533
TAFDSM
TAF
KDSM 180533Z 1806/1906 VRB03KT P6SM BKN080
     FM181300 09004KT P6SM -SN SCT030 BKN060
     FM181800 13003KT P6SM BKN100=



000
FTUS43 KDMX 180424 AAA
TAFMCW
TAF AMD
KMCW 180424Z 1804/1824 VRB03KT P6SM BKN014
     FM181000 VRB03KT P6SM SCT014 BKN250
     FM181500 VRB02KT P6SM SCT100 BKN150=



000
FTUS43 KDMX 180424 AAA
TAFMCW
TAF AMD
KMCW 180424Z 1804/1824 VRB03KT P6SM BKN014
     FM181000 VRB03KT P6SM SCT014 BKN250
     FM181500 VRB02KT P6SM SCT100 BKN150=



000
FTUS43 KDMX 172320
TAFOTM
TAF
KOTM 172320Z 1800/1824 VRB03KT P6SM SCT100 BKN250
     FM180600 VRB02KT P6SM BKN080
     FM181300 08004KT 6SM -SN BR SCT025 BKN040
     FM181800 VRB04KT P6SM BKN080=



000
FTUS43 KDMX 172320
TAFMCW
TAF
KMCW 172320Z 1800/1824 VRB03KT P6SM BKN250
     FM181500 VRB02KT P6SM SCT100 BKN150=



000
FTUS43 KDMX 172320
TAFMCW
TAF
KMCW 172320Z 1800/1824 VRB03KT P6SM BKN250
     FM181500 VRB02KT P6SM SCT100 BKN150=



000
FTUS43 KDMX 172320
TAFALO
TAF
KALO 172320Z 1800/1824 VRB03KT P6SM BKN250
     FM181500 VRB02KT P6SM SCT080 BKN120=



000
FTUS43 KDMX 172320
TAFFOD
TAF
KFOD 172320Z 1800/1824 VRB03KT P6SM SCT100 BKN250
     FM181200 12004KT P6SM SCT040 BKN100=



000
FTUS43 KDMX 172320
TAFDSM
TAF
KDSM 172320Z 1800/1824 VRB03KT P6SM BKN250
     FM181400 09004KT P6SM -SN SCT030 BKN060
     FM181800 13003KT P6SM BKN100=



000
FTUS43 KDMX 172320
TAFALO
TAF
KALO 172320Z 1800/1824 VRB03KT P6SM BKN250
     FM181500 VRB02KT P6SM SCT080 BKN120=



000
FTUS43 KDMX 172320
TAFFOD
TAF
KFOD 172320Z 1800/1824 VRB03KT P6SM SCT100 BKN250
     FM181200 12004KT P6SM SCT040 BKN100=



000
FTUS43 KDMX 172320
TAFDSM
TAF
KDSM 172320Z 1800/1824 VRB03KT P6SM BKN250
     FM181400 09004KT P6SM -SN SCT030 BKN060
     FM181800 13003KT P6SM BKN100=



000
FTUS43 KDMX 172320
TAFOTM
TAF
KOTM 172320Z 1800/1824 VRB03KT P6SM SCT100 BKN250
     FM180600 VRB02KT P6SM BKN080
     FM181300 08004KT 6SM -SN BR SCT025 BKN040
     FM181800 VRB04KT P6SM BKN080=



000
FTUS43 KDMX 171730
TAFFOD
TAF
KFOD 171730Z 1718/1818 34004KT P6SM FEW150
     FM180000 VRB03KT P6SM SCT100
     FM181200 12004KT P6SM -SHSN FEW035 BKN060 OVC100=



000
FTUS43 KDMX 171730
TAFMCW
TAF
KMCW 171730Z 1718/1818 33010KT P6SM FEW015
     FM180000 VRB03KT P6SM FEW010 SCT150=



000
FTUS43 KDMX 171730
TAFOTM
TAF
KOTM 171730Z 1718/1818 32007KT P6SM FEW015
     FM180000 VRB03KT P6SM BKN100
     FM181200 09003KT 3SM -SN BKN010 OVC030=



000
FTUS43 KDMX 171730
TAFDSM
TAF
KDSM 171730Z 1718/1818 34006KT P6SM SCT200
     FM180000 VRB03KT P6SM BKN120
     FM181100 10005KT 6SM -SN SCT015 BKN040=



000
FTUS43 KDMX 171730
TAFFOD
TAF
KFOD 171730Z 1718/1818 34004KT P6SM FEW150
     FM180000 VRB03KT P6SM SCT100
     FM181200 12004KT P6SM -SHSN FEW035 BKN060 OVC100=



000
FTUS43 KDMX 171730
TAFALO
TAF
KALO 171730Z 1718/1818 32008KT P6SM FEW015
     FM180000 VRB03KT P6SM FEW150
     FM181000 02003KT P6SM SCT010 BKN150=



000
FTUS43 KDMX 171730
TAFMCW
TAF
KMCW 171730Z 1718/1818 33010KT P6SM FEW015
     FM180000 VRB03KT P6SM FEW010 SCT150=



000
FTUS43 KDMX 171730
TAFOTM
TAF
KOTM 171730Z 1718/1818 32007KT P6SM FEW015
     FM180000 VRB03KT P6SM BKN100
     FM181200 09003KT 3SM -SN BKN010 OVC030=



000
FTUS43 KDMX 171730
TAFDSM
TAF
KDSM 171730Z 1718/1818 34006KT P6SM SCT200
     FM180000 VRB03KT P6SM BKN120
     FM181100 10005KT 6SM -SN SCT015 BKN040=



000
FTUS43 KDMX 171730
TAFALO
TAF
KALO 171730Z 1718/1818 32008KT P6SM FEW015
     FM180000 VRB03KT P6SM FEW150
     FM181000 02003KT P6SM SCT010 BKN150=



000
FTUS43 KDMX 171402 AAA
TAFOTM
TAF AMD
KOTM 171402Z 1714/1812 32008KT P6SM OVC014
     FM171600 32007KT P6SM FEW015
     FM180000 02004KT P6SM BKN120
     FM180800 06003KT P6SM BKN080=



000
FTUS43 KDMX 171402 AAA
TAFOTM
TAF AMD
KOTM 171402Z 1714/1812 32008KT P6SM OVC014
     FM171600 32007KT P6SM FEW015
     FM180000 02004KT P6SM BKN120
     FM180800 06003KT P6SM BKN080=



000
FTUS43 KDMX 171135
TAFFOD
TAF
KFOD 171135Z 1712/1812 32004KT P6SM FEW150
     FM171900 02004KT P6SM FEW150
     FM180200 08003KT P6SM FEW090 BKN200=



000
FTUS43 KDMX 171135
TAFALO
TAF
KALO 171135Z 1712/1812 32007KT P6SM FEW010
     FM180000 35004KT P6SM FEW150
     FM180600 VRB02KT P6SM BKN200=



000
FTUS43 KDMX 171135
TAFDSM
TAF
KDSM 171135Z 1712/1812 33006KT P6SM SCT120
     FM180000 06004KT P6SM BKN120
     FM180600 08003KT P6SM BKN080=



000
FTUS43 KDMX 171135
TAFOTM
TAF
KOTM 171135Z 1712/1812 32008KT P6SM OVC014
     FM171400 32007KT P6SM FEW015
     FM180000 02004KT P6SM BKN120
     FM180800 06003KT P6SM BKN080=



000
FTUS43 KDMX 171135
TAFMCW
TAF
KMCW 171135Z 1712/1812 32008KT P6SM SCT010
     FM180000 02003KT P6SM FEW150
     FM180600 VRB03KT P6SM BKN200=



000
FTUS43 KDMX 171135
TAFDSM
TAF
KDSM 171135Z 1712/1812 33006KT P6SM SCT120
     FM180000 06004KT P6SM BKN120
     FM180600 08003KT P6SM BKN080=



000
FTUS43 KDMX 171135
TAFOTM
TAF
KOTM 171135Z 1712/1812 32008KT P6SM OVC014
     FM171400 32007KT P6SM FEW015
     FM180000 02004KT P6SM BKN120
     FM180800 06003KT P6SM BKN080=



000
FTUS43 KDMX 171135
TAFFOD
TAF
KFOD 171135Z 1712/1812 32004KT P6SM FEW150
     FM171900 02004KT P6SM FEW150
     FM180200 08003KT P6SM FEW090 BKN200=



000
FTUS43 KDMX 171135
TAFALO
TAF
KALO 171135Z 1712/1812 32007KT P6SM FEW010
     FM180000 35004KT P6SM FEW150
     FM180600 VRB02KT P6SM BKN200=



000
FTUS43 KDMX 171135
TAFMCW
TAF
KMCW 171135Z 1712/1812 32008KT P6SM SCT010
     FM180000 02003KT P6SM FEW150
     FM180600 VRB03KT P6SM BKN200=



000
FTUS43 KDMX 171001 AAA
TAFOTM
TAF AMD
KOTM 171001Z 1710/1806 32012KT P6SM OVC016
     FM171200 31007KT P6SM SCT017
     FM171500 32008KT P6SM FEW025 SCT250
     FM180000 VRB03KT P6SM BKN250=



000
FTUS43 KDMX 171001 AAA
TAFOTM
TAF AMD
KOTM 171001Z 1710/1806 32012KT P6SM OVC016
     FM171200 31007KT P6SM SCT017
     FM171500 32008KT P6SM FEW025 SCT250
     FM180000 VRB03KT P6SM BKN250=



000
FTUS43 KDMX 171001 AAA
TAFOTM
TAF AMD
KOTM 171001Z 1710/1806 32012KT P6SM OVC016
     FM171200 31007KT P6SM SCT017
     FM171500 32008KT P6SM FEW025 SCT250
     FM180000 VRB03KT P6SM BKN250=



000
FTUS43 KDMX 171001 AAA
TAFOTM
TAF AMD
KOTM 171001Z 1710/1806 32012KT P6SM OVC016
     FM171200 31007KT P6SM SCT017
     FM171500 32008KT P6SM FEW025 SCT250
     FM180000 VRB03KT P6SM BKN250=



000
FTUS43 KDMX 171000 AAB
TAFMCW
TAF AMD
KMCW 171000Z 1710/1806 31010KT P6SM OVC013
     FM171100 31009KT P6SM SCT010
     FM171500 33011KT P6SM FEW015 SCT250
     FM180000 VRB03KT P6SM BKN200=



000
FTUS43 KDMX 171000 AAB
TAFMCW
TAF AMD
KMCW 171000Z 1710/1806 31010KT P6SM OVC013
     FM171100 31009KT P6SM SCT010
     FM171500 33011KT P6SM FEW015 SCT250
     FM180000 VRB03KT P6SM BKN200=



000
FTUS43 KDMX 170825 AAA
TAFDSM
TAF AMD
KDSM 170825Z 1708/1806 34010KT P6SM -SN OVC015
     FM170930 33007KT P6SM SCT017
     FM171500 34006KT P6SM FEW025 SCT250
     FM180000 VRB03KT P6SM BKN250=



000
FTUS43 KDMX 170825 AAA
TAFDSM
TAF AMD
KDSM 170825Z 1708/1806 34010KT P6SM -SN OVC015
     FM170930 33007KT P6SM SCT017
     FM171500 34006KT P6SM FEW025 SCT250
     FM180000 VRB03KT P6SM BKN250=



000
FTUS43 KDMX 170825 AAA
TAFDSM
TAF AMD
KDSM 170825Z 1708/1806 34010KT P6SM -SN OVC015
     FM170930 33007KT P6SM SCT017
     FM171500 34006KT P6SM FEW025 SCT250
     FM180000 VRB03KT P6SM BKN250=



000
FTUS43 KDMX 170824 AAA
TAFMCW
TAF AMD
KMCW 170824Z 1708/1806 31010KT P6SM OVC013
     FM170900 31009KT P6SM SCT010
     FM171500 33011KT P6SM FEW015 SCT250
     FM180000 VRB03KT P6SM BKN200=



000
FTUS43 KDMX 170824 AAA
TAFMCW
TAF AMD
KMCW 170824Z 1708/1806 31010KT P6SM OVC013
     FM170900 31009KT P6SM SCT010
     FM171500 33011KT P6SM FEW015 SCT250
     FM180000 VRB03KT P6SM BKN200=



000
FTUS43 KDMX 170824 AAA
TAFMCW
TAF AMD
KMCW 170824Z 1708/1806 31010KT P6SM OVC013
     FM170900 31009KT P6SM SCT010
     FM171500 33011KT P6SM FEW015 SCT250
     FM180000 VRB03KT P6SM BKN200=



000
FTUS43 KDMX 170824 AAA
TAFMCW
TAF AMD
KMCW 170824Z 1708/1806 31010KT P6SM OVC013
     FM170900 31009KT P6SM SCT010
     FM171500 33011KT P6SM FEW015 SCT250
     FM180000 VRB03KT P6SM BKN200=



000
FTUS43 KDMX 170531
TAFDSM
TAF
KDSM 170531Z 1706/1806 34012KT P6SM -SN OVC015
     FM170800 33007KT P6SM SCT017
     FM171500 34006KT P6SM FEW025 SCT250
     FM180000 VRB03KT P6SM BKN250=



000
FTUS43 KDMX 170531
TAFMCW
TAF
KMCW 170531Z 1706/1806 31013KT P6SM OVC013
     FM170700 31009KT P6SM SCT010
     FM171500 33011KT P6SM FEW015 SCT250
     FM180000 VRB03KT P6SM BKN200=



000
FTUS43 KDMX 170531
TAFFOD
TAF
KFOD 170531Z 1706/1806 31004KT P6SM SKC
     FM171500 34006KT P6SM FEW015 SCT250
     FM180000 VRB03KT P6SM SCT120 BKN200=



000
FTUS43 KDMX 170531
TAFALO
TAF
KALO 170531Z 1706/1806 31012KT P6SM BKN017
     FM171100 32008KT P6SM SCT016
     FM180000 VRB03KT P6SM SCT250=



000
FTUS43 KDMX 170531
TAFOTM
TAF
KOTM 170531Z 1706/1806 32012KT P6SM OVC016
     FM171000 31007KT P6SM SCT017
     FM171500 32008KT P6SM FEW025 SCT250
     FM180000 VRB03KT P6SM BKN250=



000
FTUS43 KDMX 170531
TAFDSM
TAF
KDSM 170531Z 1706/1806 34012KT P6SM -SN OVC015
     FM170800 33007KT P6SM SCT017
     FM171500 34006KT P6SM FEW025 SCT250
     FM180000 VRB03KT P6SM BKN250=



000
FTUS43 KDMX 170531
TAFMCW
TAF
KMCW 170531Z 1706/1806 31013KT P6SM OVC013
     FM170700 31009KT P6SM SCT010
     FM171500 33011KT P6SM FEW015 SCT250
     FM180000 VRB03KT P6SM BKN200=



000
FTUS43 KDMX 170531
TAFALO
TAF
KALO 170531Z 1706/1806 31012KT P6SM BKN017
     FM171100 32008KT P6SM SCT016
     FM180000 VRB03KT P6SM SCT250=



000
FTUS43 KDMX 170531
TAFOTM
TAF
KOTM 170531Z 1706/1806 32012KT P6SM OVC016
     FM171000 31007KT P6SM SCT017
     FM171500 32008KT P6SM FEW025 SCT250
     FM180000 VRB03KT P6SM BKN250=



000
FTUS43 KDMX 170531
TAFFOD
TAF
KFOD 170531Z 1706/1806 31004KT P6SM SKC
     FM171500 34006KT P6SM FEW015 SCT250
     FM180000 VRB03KT P6SM SCT120 BKN200=



000
FTUS43 KDMX 162329
TAFFOD
TAF
KFOD 162329Z 1700/1724 33007KT P6SM BKN018
     FM171000 34004KT P6SM SCT017=



000
FTUS43 KDMX 162329
TAFMCW
TAF
KMCW 162329Z 1700/1724 32014KT P6SM OVC016
      TEMPO 1700/1703 4SM -SN
     FM170700 31010KT P6SM SCT017=



000
FTUS43 KDMX 162329
TAFALO
TAF
KALO 162329Z 1700/1724 31012KT P6SM -SN BKN017
     FM170900 31010KT P6SM SCT016=



000
FTUS43 KDMX 162329
TAFDSM
TAF
KDSM 162329Z 1700/1724 32012KT P6SM OVC018
     FM170700 33008KT P6SM SCT017=



000
FTUS43 KDMX 162329
TAFOTM
TAF
KOTM 162329Z 1700/1724 31011KT P6SM OVC018
     FM170900 31008KT P6SM SCT017=



000
FTUS43 KDMX 162329
TAFALO
TAF
KALO 162329Z 1700/1724 31012KT P6SM -SN BKN017
     FM170900 31010KT P6SM SCT016=



000
FTUS43 KDMX 162329
TAFMCW
TAF
KMCW 162329Z 1700/1724 32014KT P6SM OVC016
      TEMPO 1700/1703 4SM -SN
     FM170700 31010KT P6SM SCT017=



000
FTUS43 KDMX 162329
TAFFOD
TAF
KFOD 162329Z 1700/1724 33007KT P6SM BKN018
     FM171000 34004KT P6SM SCT017=



000
FTUS43 KDMX 162329
TAFOTM
TAF
KOTM 162329Z 1700/1724 31011KT P6SM OVC018
     FM170900 31008KT P6SM SCT017=



000
FTUS43 KDMX 162329
TAFDSM
TAF
KDSM 162329Z 1700/1724 32012KT P6SM OVC018
     FM170700 33008KT P6SM SCT017=



000
FTUS43 KDMX 162043 AAB
TAFDSM
TAF AMD
KDSM 162043Z 1621/1718 33018KT P6SM OVC020
     FM170500 33010KT P6SM BKN020
     FM171400 33007KT P6SM BKN024=



000
FTUS43 KDMX 162021 AAB
TAFMCW
TAF AMD
KMCW 162021Z 1620/1718 33021KT 4SM -SN OVC015
     FM162300 32018KT P6SM OVC017
     FM170400 33010KT P6SM BKN020
     FM170900 31010KT P6SM BKN016=



000
FTUS43 KDMX 162021 AAB
TAFMCW
TAF AMD
KMCW 162021Z 1620/1718 33021KT 4SM -SN OVC015
     FM162300 32018KT P6SM OVC017
     FM170400 33010KT P6SM BKN020
     FM170900 31010KT P6SM BKN016=



000
FTUS43 KDMX 161914 AAA
TAFDSM
TAF AMD
KDSM 161914Z 1619/1718 33018G26KT P6SM OVC018
     FM162000 32016KT P6SM BKN018
     FM170500 33010KT P6SM BKN020
     FM171400 33007KT P6SM BKN024=



000
FTUS43 KDMX 161914 AAA
TAFDSM
TAF AMD
KDSM 161914Z 1619/1718 33018G26KT P6SM OVC018
     FM162000 32016KT P6SM BKN018
     FM170500 33010KT P6SM BKN020
     FM171400 33007KT P6SM BKN024=



000
FTUS43 KDMX 161816 AAA
TAFMCW
TAF AMD
KMCW 161816Z 1618/1718 33021G28KT 4SM -SN OVC013
     FM162000 32018KT P6SM SCT013 OVC017
     FM170400 33010KT P6SM BKN020
     FM170900 31010KT P6SM BKN016=



000
FTUS43 KDMX 161816 AAA
TAFMCW
TAF AMD
KMCW 161816Z 1618/1718 33021G28KT 4SM -SN OVC013
     FM162000 32018KT P6SM SCT013 OVC017
     FM170400 33010KT P6SM BKN020
     FM170900 31010KT P6SM BKN016=



000
FTUS43 KDMX 161729
TAFALO
TAF
KALO 161729Z 1618/1718 32018G26KT P6SM OVC013
     FM162200 31016KT P6SM BKN020
     FM170400 32010KT P6SM BKN017
     FM171500 32009KT P6SM BKN022=



000
FTUS43 KDMX 161729
TAFMCW
TAF
KMCW 161729Z 1618/1718 33021G28KT P6SM -SN OVC011
     FM162000 32018KT P6SM SCT013 OVC017
     FM170400 33010KT P6SM BKN020
     FM170900 31010KT P6SM BKN016=



000
FTUS43 KDMX 161729
TAFFOD
TAF
KFOD 161729Z 1618/1718 33011G18KT P6SM -SN OVC016
     FM162100 32010KT P6SM SCT016 SCT200
     FM170300 33005KT P6SM BKN020
     FM171000 33004KT P6SM BKN018=



000
FTUS43 KDMX 161729
TAFOTM
TAF
KOTM 161729Z 1618/1718 32020G27KT P6SM OVC015
     FM162300 33015KT P6SM OVC018
     FM170600 31010KT P6SM BKN020
     FM171300 31007KT P6SM BKN022=



000
FTUS43 KDMX 161729
TAFDSM
TAF
KDSM 161729Z 1618/1718 33018G26KT P6SM OVC018
     FM161900 33018G26KT P6SM SCT018 BKN022
     FM162000 32016KT P6SM BKN018
     FM170500 33010KT P6SM BKN020
     FM171400 33007KT P6SM BKN024=



000
FTUS43 KDMX 161729
TAFALO
TAF
KALO 161729Z 1618/1718 32018G26KT P6SM OVC013
     FM162200 31016KT P6SM BKN020
     FM170400 32010KT P6SM BKN017
     FM171500 32009KT P6SM BKN022=



000
FTUS43 KDMX 161729
TAFOTM
TAF
KOTM 161729Z 1618/1718 32020G27KT P6SM OVC015
     FM162300 33015KT P6SM OVC018
     FM170600 31010KT P6SM BKN020
     FM171300 31007KT P6SM BKN022=



000
FTUS43 KDMX 161729
TAFFOD
TAF
KFOD 161729Z 1618/1718 33011G18KT P6SM -SN OVC016
     FM162100 32010KT P6SM SCT016 SCT200
     FM170300 33005KT P6SM BKN020
     FM171000 33004KT P6SM BKN018=



000
FTUS43 KDMX 161729
TAFDSM
TAF
KDSM 161729Z 1618/1718 33018G26KT P6SM OVC018
     FM161900 33018G26KT P6SM SCT018 BKN022
     FM162000 32016KT P6SM BKN018
     FM170500 33010KT P6SM BKN020
     FM171400 33007KT P6SM BKN024=



000
FTUS43 KDMX 161729
TAFMCW
TAF
KMCW 161729Z 1618/1718 33021G28KT P6SM -SN OVC011
     FM162000 32018KT P6SM SCT013 OVC017
     FM170400 33010KT P6SM BKN020
     FM170900 31010KT P6SM BKN016=



000
FTUS43 KDMX 161523 AAB
TAFFOD
TAF AMD
KFOD 161523Z 1615/1712 33011G20KT P6SM -SN BKN016 BKN200
     FM162100 32010KT P6SM BKN020
     FM170800 33005KT P6SM BKN020=



000
FTUS43 KDMX 161523 AAB
TAFFOD
TAF AMD
KFOD 161523Z 1615/1712 33011G20KT P6SM -SN BKN016 BKN200
     FM162100 32010KT P6SM BKN020
     FM170800 33005KT P6SM BKN020=



000
FTUS43 KDMX 161510 AAA
TAFFOD
TAF AMD
KFOD 161510Z 1615/1712 33011G20KT P6SM -SN SCT016 BKN200
     FM162100 32010KT P6SM BKN020
     FM170800 33005KT P6SM BKN020=



000
FTUS43 KDMX 161510 AAA
TAFFOD
TAF AMD
KFOD 161510Z 1615/1712 33011G20KT P6SM -SN SCT016 BKN200
     FM162100 32010KT P6SM BKN020
     FM170800 33005KT P6SM BKN020=



000
FTUS43 KDMX 161130
TAFFOD
TAF
KFOD 161130Z 1612/1712 33014G22KT P6SM -SN OVC015
     FM161400 35014G22KT P6SM OVC015
     FM162100 32010KT P6SM BKN020
     FM170800 33005KT P6SM BKN020=



000
FTUS43 KDMX 161130
TAFALO
TAF
KALO 161130Z 1612/1712 33022G30KT P6SM -SN OVC015
     FM161600 32018G26KT P6SM OVC015
     FM162200 31016KT P6SM BKN020
     FM170600 32010KT P6SM BKN020=



000
FTUS43 KDMX 161130
TAFMCW
TAF
KMCW 161130Z 1612/1712 33024G32KT P6SM -SN OVC015
     FM161400 33022G30KT P6SM OVC015
     FM162000 32018KT P6SM BKN020
     FM170600 33010KT P6SM BKN020=



000
FTUS43 KDMX 161130
TAFFOD
TAF
KFOD 161130Z 1612/1712 33014G22KT P6SM -SN OVC015
     FM161400 35014G22KT P6SM OVC015
     FM162100 32010KT P6SM BKN020
     FM170800 33005KT P6SM BKN020=



000
FTUS43 KDMX 161130
TAFOTM
TAF
KOTM 161130Z 1612/1712 33020G28KT P6SM -SN OVC013
     FM161600 32020G27KT P6SM OVC015
     FM162200 31015KT P6SM BKN020
     FM170600 31010KT P6SM BKN020=



000
FTUS43 KDMX 161130
TAFDSM
TAF
KDSM 161130Z 1612/1712 33020G28KT P6SM -SN OVC016
     FM161400 33021G29KT P6SM OVC015
     FM162000 32016KT P6SM BKN020
     FM170500 33010KT P6SM BKN020=



000
FTUS43 KDMX 161130
TAFALO
TAF
KALO 161130Z 1612/1712 33022G30KT P6SM -SN OVC015
     FM161600 32018G26KT P6SM OVC015
     FM162200 31016KT P6SM BKN020
     FM170600 32010KT P6SM BKN020=



000
FTUS43 KDMX 161130
TAFDSM
TAF
KDSM 161130Z 1612/1712 33020G28KT P6SM -SN OVC016
     FM161400 33021G29KT P6SM OVC015
     FM162000 32016KT P6SM BKN020
     FM170500 33010KT P6SM BKN020=



000
FTUS43 KDMX 161130
TAFMCW
TAF
KMCW 161130Z 1612/1712 33024G32KT P6SM -SN OVC015
     FM161400 33022G30KT P6SM OVC015
     FM162000 32018KT P6SM BKN020
     FM170600 33010KT P6SM BKN020=



000
FTUS43 KDMX 161130
TAFOTM
TAF
KOTM 161130Z 1612/1712 33020G28KT P6SM -SN OVC013
     FM161600 32020G27KT P6SM OVC015
     FM162200 31015KT P6SM BKN020
     FM170600 31010KT P6SM BKN020=



000
FTUS43 KDMX 161007 AAB
TAFOTM
TAF AMD
KOTM 161007Z 1610/1706 31020G30KT P6SM -FZRA OVC010
     FM161300 32022G30KT P6SM OVC018
     FM162300 31014KT P6SM BKN022=



000
FTUS43 KDMX 161007 AAB
TAFOTM
TAF AMD
KOTM 161007Z 1610/1706 31020G30KT P6SM -FZRA OVC010
     FM161300 32022G30KT P6SM OVC018
     FM162300 31014KT P6SM BKN022=



000
FTUS43 KDMX 161007 AAB
TAFOTM
TAF AMD
KOTM 161007Z 1610/1706 31020G30KT P6SM -FZRA OVC010
     FM161300 32022G30KT P6SM OVC018
     FM162300 31014KT P6SM BKN022=



000
FTUS43 KDMX 161007 AAB
TAFOTM
TAF AMD
KOTM 161007Z 1610/1706 31020G30KT P6SM -FZRA OVC010
     FM161300 32022G30KT P6SM OVC018
     FM162300 31014KT P6SM BKN022=



000
FTUS43 KDMX 161006 AAA
TAFFOD
TAF AMD
KFOD 161006Z 1610/1706 34018G26KT 5SM -SN BKN015 OVC024
     FM161400 35015G22KT P6SM OVC014
     FM162300 32008KT P6SM BKN022=



000
FTUS43 KDMX 161006 AAA
TAFFOD
TAF AMD
KFOD 161006Z 1610/1706 34018G26KT 5SM -SN BKN015 OVC024
     FM161400 35015G22KT P6SM OVC014
     FM162300 32008KT P6SM BKN022=



000
FTUS43 KDMX 161006 AAA
TAFFOD
TAF AMD
KFOD 161006Z 1610/1706 34018G26KT 5SM -SN BKN015 OVC024
     FM161400 35015G22KT P6SM OVC014
     FM162300 32008KT P6SM BKN022=



000
FTUS43 KDMX 161006 AAA
TAFFOD
TAF AMD
KFOD 161006Z 1610/1706 34018G26KT 5SM -SN BKN015 OVC024
     FM161400 35015G22KT P6SM OVC014
     FM162300 32008KT P6SM BKN022=



000
FTUS43 KDMX 160702 AAA
TAFOTM
TAF AMD
KOTM 160702Z 1607/1706 31014G21KT 6SM -RA OVC006
     FM160900 31024G32KT P6SM OVC012
     FM161400 32022G30KT P6SM OVC018
     FM162300 31014KT P6SM BKN022=



000
FTUS43 KDMX 160702 AAA
TAFOTM
TAF AMD
KOTM 160702Z 1607/1706 31014G21KT 6SM -RA OVC006
     FM160900 31024G32KT P6SM OVC012
     FM161400 32022G30KT P6SM OVC018
     FM162300 31014KT P6SM BKN022=



000
FTUS43 KDMX 160702 AAA
TAFOTM
TAF AMD
KOTM 160702Z 1607/1706 31014G21KT 6SM -RA OVC006
     FM160900 31024G32KT P6SM OVC012
     FM161400 32022G30KT P6SM OVC018
     FM162300 31014KT P6SM BKN022=



000
FTUS43 KDMX 160702 AAA
TAFOTM
TAF AMD
KOTM 160702Z 1607/1706 31014G21KT 6SM -RA OVC006
     FM160900 31024G32KT P6SM OVC012
     FM161400 32022G30KT P6SM OVC018
     FM162300 31014KT P6SM BKN022=



000
FTUS43 KDMX 160701 AAA
TAFDSM
TAF AMD
KDSM 160701Z 1607/1706 32024G32KT P6SM -SN OVC010
      TEMPO 1607/1608 -FZRA
     FM161200 33020G29KT P6SM BKN016
     FM162300 32013KT P6SM BKN028=



000
FTUS43 KDMX 160701 AAA
TAFDSM
TAF AMD
KDSM 160701Z 1607/1706 32024G32KT P6SM -SN OVC010
      TEMPO 1607/1608 -FZRA
     FM161200 33020G29KT P6SM BKN016
     FM162300 32013KT P6SM BKN028=



000
FTUS43 KDMX 160658 AAA
TAFALO
TAF AMD
KALO 160658Z 1607/1706 33015G22KT 5SM -RA BR OVC006
     FM160830 33023G32KT 6SM -SN OVC006
     FM161100 33023G31KT P6SM OVC012
     FM162300 31015KT P6SM BKN017=



000
FTUS43 KDMX 160658 AAA
TAFALO
TAF AMD
KALO 160658Z 1607/1706 33015G22KT 5SM -RA BR OVC006
     FM160830 33023G32KT 6SM -SN OVC006
     FM161100 33023G31KT P6SM OVC012
     FM162300 31015KT P6SM BKN017=



000
FTUS43 KDMX 160531
TAFOTM
TAF
KOTM 160531Z 1606/1706 31014G21KT 6SM -RA OVC006
      TEMPO 1606/1609 3SM -RA BR
     FM160900 31024G32KT P6SM OVC012
     FM161400 32022G30KT P6SM OVC018
     FM162300 31014KT P6SM BKN022=



000
FTUS43 KDMX 160531
TAFALO
TAF
KALO 160531Z 1606/1706 33015G22KT 2SM -RA OVC005
     FM160800 33023G32KT 6SM -SN OVC006
     FM161100 33023G31KT P6SM OVC012
     FM162300 31015KT P6SM BKN017=



000
FTUS43 KDMX 160531
TAFFOD
TAF
KFOD 160531Z 1606/1706 34018G25KT P6SM -SN OVC010
     FM160700 34021G30KT 6SM -SN BKN012 OVC024
     FM161400 35015G22KT P6SM OVC014
     FM162300 32008KT P6SM BKN022=



000
FTUS43 KDMX 160531
TAFALO
TAF
KALO 160531Z 1606/1706 33015G22KT 2SM -RA OVC005
     FM160800 33023G32KT 6SM -SN OVC006
     FM161100 33023G31KT P6SM OVC012
     FM162300 31015KT P6SM BKN017=



000
FTUS43 KDMX 160531
TAFMCW
TAF
KMCW 160531Z 1606/1706 34024G33KT P6SM -SN OVC006
     FM160800 34027G36KT 6SM -SN BKN012 OVC020
     FM161100 33021G31KT P6SM OVC012
     FM162300 32015KT P6SM BKN018=



000
FTUS43 KDMX 160531
TAFDSM
TAF
KDSM 160531Z 1606/1706 33017G27KT P6SM -RA OVC008
      TEMPO 1606/1608 3SM -RASN
     FM160800 32024G32KT P6SM -SN OVC013
     FM161200 33020G29KT P6SM BKN016
     FM162300 32013KT P6SM BKN028=



000
FTUS43 KDMX 160531
TAFOTM
TAF
KOTM 160531Z 1606/1706 31014G21KT 6SM -RA OVC006
      TEMPO 1606/1609 3SM -RA BR
     FM160900 31024G32KT P6SM OVC012
     FM161400 32022G30KT P6SM OVC018
     FM162300 31014KT P6SM BKN022=



000
FTUS43 KDMX 160531
TAFDSM
TAF
KDSM 160531Z 1606/1706 33017G27KT P6SM -RA OVC008
      TEMPO 1606/1608 3SM -RASN
     FM160800 32024G32KT P6SM -SN OVC013
     FM161200 33020G29KT P6SM BKN016
     FM162300 32013KT P6SM BKN028=



000
FTUS43 KDMX 160531
TAFFOD
TAF
KFOD 160531Z 1606/1706 34018G25KT P6SM -SN OVC010
     FM160700 34021G30KT 6SM -SN BKN012 OVC024
     FM161400 35015G22KT P6SM OVC014
     FM162300 32008KT P6SM BKN022=



000
FTUS43 KDMX 160531
TAFMCW
TAF
KMCW 160531Z 1606/1706 34024G33KT P6SM -SN OVC006
     FM160800 34027G36KT 6SM -SN BKN012 OVC020
     FM161100 33021G31KT P6SM OVC012
     FM162300 32015KT P6SM BKN018=



    US Dept of Commerce
    National Oceanic and Atmospheric Administration
    National Weather Service
    1325 East West Highway
    Silver Spring, MD 20910
    Page Author: NWS Internet Services Team
Disclaimer
Information Quality
Credits
Glossary
Privacy Policy
Freedom of Information Act (FOIA)
About Us
Career Opportunities